BDA weather

L.F. Wade International International Airport
Hamilton, Bermuda

Public forecast

Using degrees Celsius for public forecast. Weather courtesy of forecast.io.

METAR (pilot weather report)

Retrieved 2019/02/15 19:55 UTC (52 minutes ago):

TXKF 151955Z 06009KT 9999 -RA FEW009 BKN014 BKN040 BKN120 19/17 Q1015

TAF (pilot weather forecast)

Retrieved 2019/02/15 18:53 UTC (2 hours ago):

TAF TXKF 151744Z 1518/1618 09018KT 9999 VCSH SCT008 BKN012 PROB30 TEMPO 1518/1523 BKN008 PROB30 TEMPO 1520/1522 3200 SHRA BECMG 1520/1523 20012KT PROB40 1523/1614 BKN006